createdAt,value
2018-01-10T00:00:58.929Z,4.77
2018-01-10T00:02:03.586Z,4.78
2018-01-10T00:03:08.156Z,4.84
2018-01-10T00:04:12.740Z,4.87
2018-01-10T00:05:17.800Z,4.87
2018-01-10T00:06:22.257Z,4.85
2018-01-10T00:07:26.725Z,4.89
2018-01-10T00:08:31.155Z,4.92
2018-01-10T00:09:35.690Z,4.99
2018-01-10T00:10:40.246Z,5.03
2018-01-10T00:11:45.195Z,5.10
2018-01-10T00:12:49.759Z,5.17
2018-01-10T00:13:54.286Z,5.23
2018-01-10T00:14:58.891Z,5.27
2018-01-10T00:16:03.545Z,5.27
2018-01-10T00:17:08.206Z,5.29
2018-01-10T00:18:13.251Z,5.27
2018-01-10T00:19:17.987Z,5.30
2018-01-10T00:20:22.573Z,5.32
2018-01-10T00:21:27.184Z,5.33
2018-01-10T00:22:31.753Z,5.32
2018-01-10T00:23:36.392Z,5.33
2018-01-10T00:24:41.261Z,5.33
2018-01-10T00:25:45.845Z,5.34
2018-01-10T00:26:50.468Z,5.35
2018-01-10T00:27:55.056Z,5.34
2018-01-10T00:28:59.668Z,5.36
2018-01-10T00:30:04.336Z,5.38
2018-01-10T00:31:09.351Z,5.40
2018-01-10T00:32:13.934Z,5.42
2018-01-10T00:33:18.543Z,5.43
2018-01-10T00:34:23.176Z,5.48
2018-01-10T00:35:27.803Z,5.47
2018-01-10T00:36:32.426Z,5.50
2018-01-10T00:37:37.516Z,5.50
2018-01-10T00:38:42.142Z,5.50
2018-01-10T00:39:46.774Z,5.49
2018-01-10T00:40:51.372Z,5.47
2018-01-10T00:41:56.100Z,5.48
2018-01-10T00:43:00.767Z,5.49
2018-01-10T00:44:06.867Z,5.48
2018-01-10T00:45:11.542Z,5.49
2018-01-10T00:46:16.309Z,5.53
2018-01-10T00:47:20.992Z,5.54
2018-01-10T00:48:25.709Z,5.57
2018-01-10T00:49:30.403Z,5.54
2018-01-10T00:50:35.372Z,5.58
2018-01-10T00:51:40.055Z,5.57
2018-01-10T00:52:44.722Z,5.59
2018-01-10T00:53:49.420Z,5.61
2018-01-10T00:54:54.055Z,5.62
2018-01-10T00:55:58.770Z,5.64
2018-01-10T00:57:03.896Z,5.62
2018-01-10T00:58:08.553Z,5.59
2018-01-10T00:59:13.223Z,5.60
2018-01-10T01:00:17.924Z,5.62
2018-01-10T01:01:22.629Z,5.60
2018-01-10T01:02:27.339Z,5.53
2018-01-10T01:03:32.350Z,5.55
2018-01-10T01:04:36.947Z,5.57
2018-01-10T01:05:41.573Z,5.59
2018-01-10T01:06:46.273Z,5.62
2018-01-10T01:07:51.997Z,5.61
2018-01-10T01:08:57.556Z,5.63
2018-01-10T01:10:02.644Z,5.65
2018-01-10T01:11:07.228Z,5.68
2018-01-10T01:12:12.783Z,5.72
2018-01-10T01:13:17.496Z,5.77
2018-01-10T01:14:22.087Z,5.77
2018-01-10T01:15:26.804Z,5.79
2018-01-10T01:16:31.804Z,5.79
2018-01-10T01:17:37.387Z,5.82
2018-01-10T01:18:41.984Z,5.83
2018-01-10T01:19:46.595Z,5.82
2018-01-10T01:20:51.202Z,5.82
2018-01-10T01:21:55.854Z,5.80
2018-01-10T01:23:00.953Z,5.80
2018-01-10T01:24:05.567Z,5.78
2018-01-10T01:25:10.282Z,5.76
2018-01-10T01:26:15.578Z,5.74
2018-01-10T01:27:20.159Z,5.70
2018-01-10T01:28:24.720Z,5.70
2018-01-10T01:29:29.781Z,5.70
2018-01-10T01:30:34.384Z,5.69
2018-01-10T01:31:39.049Z,5.66
2018-01-10T01:32:43.633Z,5.71
2018-01-10T01:33:48.264Z,5.75
2018-01-10T01:34:52.848Z,5.76
2018-01-10T01:35:57.951Z,5.78
2018-01-10T01:37:02.567Z,5.76
2018-01-10T01:38:07.143Z,5.75
2018-01-10T01:39:11.787Z,5.74
2018-01-10T01:40:16.533Z,5.73
2018-01-10T01:41:21.190Z,5.69
2018-01-10T01:42:26.198Z,5.67
2018-01-10T01:43:30.775Z,5.66
2018-01-10T01:44:35.413Z,5.64
2018-01-10T01:45:39.980Z,5.63
2018-01-10T01:46:44.586Z,5.64
2018-01-10T01:47:49.136Z,5.66
2018-01-10T01:48:54.090Z,5.64
2018-01-10T01:49:58.676Z,5.63
2018-01-10T01:51:03.374Z,5.62
2018-01-10T01:52:08.006Z,5.62
2018-01-10T01:53:12.816Z,5.60
2018-01-10T01:54:17.460Z,5.59
2018-01-10T01:55:22.472Z,5.58
2018-01-10T01:56:27.209Z,5.54
2018-01-10T01:57:31.911Z,5.55
2018-01-10T01:58:36.581Z,5.51
2018-01-10T01:59:41.356Z,5.54
2018-01-10T02:00:46.028Z,5.53
2018-01-10T02:01:51.114Z,5.51
2018-01-10T02:02:55.774Z,5.51
2018-01-10T02:04:00.438Z,5.50
2018-01-10T02:05:05.094Z,5.48
2018-01-10T02:06:09.763Z,5.45
2018-01-10T02:07:14.445Z,5.44
2018-01-10T02:08:19.501Z,5.42
2018-01-10T02:09:24.229Z,5.39
2018-01-10T02:10:28.893Z,5.37
2018-01-10T02:11:33.608Z,5.35
2018-01-10T02:12:38.245Z,5.33
2018-01-10T02:13:42.979Z,5.32
2018-01-10T02:14:47.871Z,5.36
2018-01-10T02:15:52.452Z,5.35
2018-01-10T02:16:57.028Z,5.34
2018-01-10T02:18:01.663Z,5.33
2018-01-10T02:19:06.227Z,5.32
2018-01-10T02:20:11.038Z,5.31
2018-01-10T02:21:16.036Z,5.32
2018-01-10T02:22:20.736Z,5.31
2018-01-10T02:23:25.431Z,5.30
2018-01-10T02:24:30.294Z,5.32
2018-01-10T02:25:34.924Z,5.27
2018-01-10T02:26:39.552Z,5.30
2018-01-10T02:27:45.173Z,5.29
2018-01-10T02:28:49.861Z,5.29
2018-01-10T02:29:54.592Z,5.31
2018-01-10T02:30:59.242Z,5.36
2018-01-10T02:32:03.941Z,5.38
2018-01-10T02:33:08.579Z,5.40
2018-01-10T02:34:13.748Z,5.38
2018-01-10T02:35:27.391Z,5.39
2018-01-10T02:36:31.938Z,5.36
2018-01-10T02:37:36.504Z,5.36
2018-01-10T02:38:41.091Z,5.39
2018-01-10T02:39:45.672Z,5.38
2018-01-10T02:40:50.744Z,5.38
2018-01-10T02:41:55.339Z,5.38
2018-01-10T02:42:59.964Z,5.39
2018-01-10T02:44:04.680Z,5.40
2018-01-10T02:45:09.307Z,5.43
2018-01-10T02:46:13.937Z,5.46
2018-01-10T02:47:18.948Z,5.43
2018-01-10T02:48:23.580Z,5.44
2018-01-10T02:49:28.190Z,5.43
2018-01-10T02:50:32.754Z,5.42
2018-01-10T02:51:37.417Z,5.43
2018-01-10T02:52:42.159Z,5.42
2018-01-10T02:53:47.121Z,5.40
2018-01-10T02:54:51.687Z,5.40
2018-01-10T02:55:56.188Z,5.41
2018-01-10T02:57:00.740Z,5.38
2018-01-10T02:58:05.257Z,5.36
2018-01-10T02:59:10.067Z,5.39
2018-01-10T03:00:15.481Z,5.41
2018-01-10T03:01:20.124Z,5.43
2018-01-10T03:02:24.748Z,5.39
2018-01-10T03:03:29.454Z,5.41
2018-01-10T03:04:34.118Z,5.43
2018-01-10T03:05:39.205Z,5.44
2018-01-10T03:06:43.833Z,5.45
2018-01-10T03:07:48.315Z,5.48
2018-01-10T03:08:52.804Z,5.47
2018-01-10T03:09:57.916Z,5.50
2018-01-10T03:11:02.581Z,5.51
2018-01-10T03:12:07.653Z,5.51
2018-01-10T03:13:12.309Z,5.53
2018-01-10T03:14:16.979Z,5.55
2018-01-10T03:15:21.651Z,5.59
2018-01-10T03:16:26.326Z,5.57
2018-01-10T03:17:30.957Z,5.61
2018-01-10T03:18:35.960Z,5.62
2018-01-10T03:19:40.617Z,5.59
2018-01-10T03:20:45.285Z,5.58
2018-01-10T03:21:50.038Z,5.58
2018-01-10T03:22:54.670Z,5.59
2018-01-10T03:23:59.370Z,5.57
2018-01-10T03:25:04.462Z,5.60
2018-01-10T03:26:09.078Z,5.58
2018-01-10T03:27:13.959Z,5.57
2018-01-10T03:28:18.685Z,5.60
2018-01-10T03:29:23.357Z,5.60
2018-01-10T03:30:28.106Z,5.59
2018-01-10T03:31:33.163Z,5.61
2018-01-10T03:32:37.950Z,5.58
2018-01-10T03:33:42.667Z,5.59
2018-01-10T03:34:47.429Z,5.61
2018-01-10T03:35:52.211Z,5.59
2018-01-10T03:36:56.893Z,5.57
2018-01-10T03:38:01.934Z,5.57
2018-01-10T03:39:06.658Z,5.58
2018-01-10T03:40:11.394Z,5.52
2018-01-10T03:41:16.083Z,5.53
2018-01-10T03:42:20.743Z,5.57
2018-01-10T03:43:25.438Z,5.53
2018-01-10T03:44:30.934Z,5.53
2018-01-10T03:45:35.634Z,5.51
2018-01-10T03:46:40.608Z,5.51
2018-01-10T03:47:45.328Z,5.50
2018-01-10T03:48:50.021Z,5.54
2018-01-10T03:49:54.716Z,5.46
2018-01-10T03:50:59.790Z,5.47
2018-01-10T03:52:04.462Z,5.49
2018-01-10T03:53:09.184Z,5.47
2018-01-10T03:54:13.915Z,5.44
2018-01-10T03:55:18.626Z,5.44
2018-01-10T03:56:23.297Z,5.44
2018-01-10T03:57:28.433Z,5.44
2018-01-10T03:58:33.122Z,5.45
2018-01-10T03:59:37.736Z,5.43
2018-01-10T04:00:42.340Z,5.43
2018-01-10T04:01:47.129Z,5.38
2018-01-10T04:02:51.770Z,5.37
2018-01-10T04:03:56.972Z,5.37
2018-01-10T04:05:01.622Z,5.37
2018-01-10T04:06:06.253Z,5.34
2018-01-10T04:07:10.910Z,5.35
2018-01-10T04:08:15.614Z,5.34
2018-01-10T04:09:20.293Z,5.31
2018-01-10T04:10:25.387Z,5.30
2018-01-10T04:11:30.073Z,5.31
2018-01-10T04:12:34.689Z,5.31
2018-01-10T04:13:39.432Z,5.30
2018-01-10T04:14:44.226Z,5.31
2018-01-10T04:15:48.966Z,5.31
2018-01-10T04:16:54.191Z,5.29
2018-01-10T04:17:58.961Z,5.30
2018-01-10T04:19:03.722Z,5.33
2018-01-10T04:20:08.475Z,5.34
2018-01-10T04:21:13.241Z,5.36
2018-01-10T04:22:18.001Z,5.35
2018-01-10T04:23:23.114Z,5.34
2018-01-10T04:24:27.848Z,5.32
2018-01-10T04:25:32.653Z,5.32
2018-01-10T04:26:37.375Z,5.31
2018-01-10T04:27:42.174Z,5.33
2018-01-10T04:28:46.969Z,5.34
2018-01-10T04:29:51.992Z,5.34
2018-01-10T04:30:56.858Z,5.38
2018-01-10T04:32:01.662Z,5.35
2018-01-10T04:33:06.552Z,5.36
2018-01-10T04:34:11.344Z,5.31
2018-01-10T04:35:16.404Z,5.31
2018-01-10T04:36:21.162Z,5.34
2018-01-10T04:37:25.886Z,5.35
2018-01-10T04:38:30.581Z,5.29
2018-01-10T04:39:35.328Z,5.22
2018-01-10T04:40:40.053Z,5.18
2018-01-10T04:41:45.174Z,5.18
2018-01-10T04:42:50.061Z,5.22
2018-01-10T04:43:54.729Z,5.23
2018-01-10T04:44:59.392Z,5.23
2018-01-10T04:46:04.030Z,5.24
2018-01-10T04:47:08.716Z,5.30
2018-01-10T04:48:13.829Z,5.31
2018-01-10T04:49:18.523Z,5.31
2018-01-10T04:50:23.455Z,5.30
2018-01-10T04:51:28.089Z,5.29
2018-01-10T04:52:32.815Z,5.27
2018-01-10T04:53:37.478Z,5.30
2018-01-10T04:54:42.459Z,5.36
2018-01-10T04:55:47.132Z,5.30
2018-01-10T04:56:52.093Z,5.23
2018-01-10T04:57:56.785Z,5.21
2018-01-10T04:59:02.127Z,5.18
2018-01-10T05:00:06.781Z,5.21
2018-01-10T05:01:11.650Z,5.19
2018-01-10T05:02:16.214Z,5.20
2018-01-10T05:03:20.744Z,5.23
2018-01-10T05:04:25.377Z,5.24
2018-01-10T05:05:30.040Z,5.28
2018-01-10T05:06:34.674Z,5.20
2018-01-10T05:07:39.684Z,5.23
2018-01-10T05:08:44.369Z,5.25
2018-01-10T05:09:49.018Z,5.25
2018-01-10T05:10:53.683Z,5.25
2018-01-10T05:11:58.390Z,5.23
2018-01-10T05:13:03.115Z,5.22
2018-01-10T05:14:08.242Z,5.22
2018-01-10T05:15:12.896Z,5.27
2018-01-10T05:16:17.566Z,5.29
2018-01-10T05:17:22.224Z,5.23
2018-01-10T05:18:26.901Z,5.19
2018-01-10T05:19:31.575Z,5.12
2018-01-10T05:20:36.296Z,5.15
2018-01-10T05:21:40.937Z,5.17
2018-01-10T05:22:45.754Z,5.23
2018-01-10T05:23:50.543Z,5.21
2018-01-10T05:24:55.188Z,5.18
2018-01-10T05:25:59.844Z,5.15
2018-01-10T05:27:04.904Z,5.22
2018-01-10T05:28:09.551Z,5.21
2018-01-10T05:29:14.416Z,5.22
2018-01-10T05:30:19.127Z,5.20
2018-01-10T05:31:24.021Z,5.24
2018-01-10T05:32:28.859Z,5.20
2018-01-10T05:33:34.132Z,5.17
2018-01-10T05:34:38.842Z,5.19
2018-01-10T05:35:43.545Z,5.23
2018-01-10T05:36:48.314Z,5.22
2018-01-10T05:37:53.070Z,5.15
2018-01-10T05:38:57.823Z,5.10
2018-01-10T05:40:02.581Z,5.09
2018-01-10T05:41:07.309Z,5.07
2018-01-10T05:42:12.026Z,5.08
2018-01-10T05:43:16.769Z,5.05
2018-01-10T05:44:21.569Z,5.05
2018-01-10T05:45:26.345Z,5.07
2018-01-10T05:46:31.080Z,5.05
2018-01-10T05:47:35.830Z,5.05
2018-01-10T05:48:40.563Z,5.04
2018-01-10T05:49:45.325Z,4.99
2018-01-10T05:50:50.739Z,4.98
2018-01-10T05:51:55.557Z,5.00
2018-01-10T05:53:00.312Z,4.97
2018-01-10T05:54:05.055Z,4.96
2018-01-10T05:55:09.865Z,4.98
2018-01-10T05:56:14.610Z,4.99
2018-01-10T05:57:19.420Z,4.99
2018-01-10T05:58:24.191Z,4.97
2018-01-10T05:59:28.939Z,4.98
2018-01-10T06:00:33.781Z,4.99
2018-01-10T06:01:38.566Z,5.02
2018-01-10T06:02:43.786Z,5.04
2018-01-10T06:03:48.539Z,4.97
2018-01-10T06:04:53.305Z,5.00
2018-01-10T06:05:58.050Z,4.96
2018-01-10T06:07:02.785Z,4.93
2018-01-10T06:08:07.866Z,4.95
2018-01-10T06:09:12.630Z,4.96
2018-01-10T06:10:17.447Z,4.98
2018-01-10T06:11:22.220Z,4.96
2018-01-10T06:12:27.006Z,4.97
2018-01-10T06:13:31.783Z,4.91
2018-01-10T06:14:37.043Z,4.93
2018-01-10T06:15:41.822Z,4.91
2018-01-10T06:16:46.637Z,4.90
2018-01-10T06:17:51.439Z,4.96
2018-01-10T06:18:56.187Z,4.95
2018-01-10T06:20:01.045Z,4.95
2018-01-10T06:21:06.020Z,4.96
2018-01-10T06:22:11.829Z,4.94
2018-01-10T06:23:16.574Z,4.95
2018-01-10T06:24:21.298Z,4.99
2018-01-10T06:25:26.039Z,4.98
2018-01-10T06:26:30.763Z,5.00
2018-01-10T06:27:39.908Z,4.98
2018-01-10T06:28:44.963Z,4.95
2018-01-10T06:29:49.547Z,5.00
2018-01-10T06:30:54.171Z,5.01
2018-01-10T06:31:58.762Z,5.04
2018-01-10T06:33:03.452Z,4.99
2018-01-10T06:34:09.111Z,4.99
2018-01-10T06:35:13.915Z,5.05
2018-01-10T06:36:18.636Z,5.08
2018-01-10T06:37:23.313Z,5.07
2018-01-10T06:38:27.929Z,5.07
2018-01-10T06:39:32.507Z,5.11
2018-01-10T06:40:37.438Z,5.01
2018-01-10T06:41:42.092Z,4.96
2018-01-10T06:42:46.812Z,4.95
2018-01-10T06:43:51.520Z,4.98
2018-01-10T06:44:56.227Z,4.98
2018-01-10T06:46:00.921Z,4.97
2018-01-10T06:47:06.011Z,4.97
2018-01-10T06:48:10.752Z,5.01
2018-01-10T06:49:15.400Z,5.00
2018-01-10T06:50:20.175Z,4.99
2018-01-10T06:51:24.862Z,5.01
2018-01-10T06:52:29.582Z,5.01
2018-01-10T06:53:34.688Z,5.00
2018-01-10T06:54:39.521Z,5.03
2018-01-10T06:55:44.180Z,4.99
2018-01-10T06:56:48.960Z,4.98
2018-01-10T06:57:53.619Z,5.00
2018-01-10T06:58:58.326Z,5.00
2018-01-10T07:00:03.498Z,5.05
2018-01-10T07:01:08.220Z,4.98
2018-01-10T07:02:12.890Z,4.98
2018-01-10T07:03:17.658Z,4.98
2018-01-10T07:04:22.316Z,5.00
2018-01-10T07:05:27.006Z,5.00
2018-01-10T07:06:32.015Z,4.99
2018-01-10T07:07:36.772Z,4.98
2018-01-10T07:08:41.450Z,5.02
2018-01-10T07:09:46.231Z,5.02
2018-01-10T07:10:51.010Z,5.00
2018-01-10T07:11:55.886Z,5.05
2018-01-10T07:13:01.014Z,5.11
2018-01-10T07:14:05.768Z,5.09
2018-01-10T07:15:10.558Z,5.11
2018-01-10T07:16:15.225Z,5.12
2018-01-10T07:17:20.040Z,5.13
2018-01-10T07:18:24.686Z,5.12
2018-01-10T07:19:30.982Z,5.06
2018-01-10T07:20:35.758Z,5.02
2018-01-10T07:21:40.431Z,4.99
2018-01-10T07:22:45.272Z,5.01
2018-01-10T07:23:50.106Z,5.02
2018-01-10T07:24:55.155Z,4.99
2018-01-10T07:26:00.388Z,4.99
2018-01-10T07:27:04.996Z,4.95
2018-01-10T07:28:09.894Z,4.97
2018-01-10T07:29:14.486Z,5.01
2018-01-10T07:30:19.247Z,5.04
2018-01-10T07:31:23.964Z,5.00
2018-01-10T07:32:29.296Z,4.98
2018-01-10T07:33:34.058Z,5.00
2018-01-10T07:34:39.419Z,4.99
2018-01-10T07:35:44.053Z,5.00
2018-01-10T07:36:48.753Z,4.98
2018-01-10T07:37:54.018Z,4.98
2018-01-10T07:38:58.798Z,4.99
2018-01-10T07:40:03.505Z,5.04
2018-01-10T07:41:08.259Z,5.00
2018-01-10T07:42:13.086Z,5.00
2018-01-10T07:43:17.810Z,4.98
2018-01-10T07:44:23.007Z,4.99
2018-01-10T07:45:28.154Z,4.98
2018-01-10T07:46:32.928Z,4.98
2018-01-10T07:47:37.561Z,5.00
2018-01-10T07:48:42.227Z,4.99
2018-01-10T07:49:46.893Z,4.96
2018-01-10T07:50:52.688Z,5.00
2018-01-10T07:51:57.500Z,5.01
2018-01-10T07:53:02.393Z,5.00
2018-01-10T07:54:07.121Z,5.04
2018-01-10T07:55:11.946Z,5.09
2018-01-10T07:56:16.626Z,5.04
2018-01-10T07:57:21.675Z,4.96
2018-01-10T07:58:26.442Z,4.97
2018-01-10T07:59:31.121Z,4.96
2018-01-10T08:00:35.878Z,5.01
2018-01-10T08:01:40.540Z,5.00
2018-01-10T08:02:45.246Z,4.99
2018-01-10T08:03:50.417Z,5.03
2018-01-10T08:04:56.084Z,5.04
2018-01-10T08:06:00.729Z,5.03
2018-01-10T08:07:05.333Z,5.08
2018-01-10T08:08:10.107Z,5.06
2018-01-10T08:09:14.803Z,5.07
2018-01-10T08:10:19.816Z,5.04
2018-01-10T08:11:24.432Z,5.04
2018-01-10T08:12:29.170Z,5.05
2018-01-10T08:13:33.878Z,5.05
2018-01-10T08:14:38.550Z,5.07
2018-01-10T08:15:43.194Z,5.03
2018-01-10T08:16:48.389Z,5.06
2018-01-10T08:17:53.097Z,5.07
2018-01-10T08:18:57.837Z,5.05
2018-01-10T08:20:02.642Z,5.05
2018-01-10T08:21:07.412Z,5.01
2018-01-10T08:22:12.317Z,5.08
2018-01-10T08:23:18.406Z,5.07
2018-01-10T08:24:23.189Z,5.10
2018-01-10T08:25:28.004Z,5.07
2018-01-10T08:26:32.788Z,5.07
2018-01-10T08:27:37.634Z,5.14
2018-01-10T08:28:44.429Z,5.14
2018-01-10T08:29:49.521Z,5.16
2018-01-10T08:30:54.301Z,5.16
2018-01-10T08:31:59.044Z,5.17
2018-01-10T08:33:03.867Z,5.15
2018-01-10T08:34:08.613Z,5.17
2018-01-10T08:35:13.402Z,5.20
2018-01-10T08:36:18.680Z,5.19
2018-01-10T08:37:23.448Z,5.16
2018-01-10T08:38:28.291Z,5.19
2018-01-10T08:39:33.101Z,5.18
2018-01-10T08:40:37.949Z,5.18
2018-01-10T08:41:42.791Z,5.20
2018-01-10T08:42:47.986Z,5.20
2018-01-10T08:43:52.897Z,5.23
2018-01-10T08:44:57.736Z,5.19
2018-01-10T08:46:02.562Z,5.20
2018-01-10T08:47:07.312Z,5.21
2018-01-10T08:48:12.023Z,5.25
2018-01-10T08:49:17.350Z,5.26
2018-01-10T08:50:22.671Z,5.25
2018-01-10T08:51:27.821Z,5.27
2018-01-10T08:52:32.450Z,5.28
2018-01-10T08:53:37.187Z,5.34
2018-01-10T08:54:41.868Z,5.40
2018-01-10T08:55:46.976Z,5.39
2018-01-10T08:56:51.705Z,5.42
2018-01-10T08:57:56.509Z,5.44
2018-01-10T08:59:01.107Z,5.44
2018-01-10T09:00:05.801Z,5.43
2018-01-10T09:01:11.693Z,5.48
2018-01-10T09:02:16.845Z,5.47
2018-01-10T09:03:21.678Z,5.45
2018-01-10T09:04:27.012Z,5.53
2018-01-10T09:05:31.826Z,5.53
2018-01-10T09:06:36.591Z,5.50
2018-01-10T09:07:42.114Z,5.53
2018-01-10T09:08:47.210Z,5.57
2018-01-10T09:09:51.929Z,5.59
2018-01-10T09:10:56.628Z,5.62
2018-01-10T09:12:01.354Z,5.64
2018-01-10T09:13:06.731Z,5.67
2018-01-10T09:14:11.473Z,5.64
2018-01-10T09:15:16.627Z,5.62
2018-01-10T09:16:21.422Z,5.62
2018-01-10T09:17:26.205Z,5.67
2018-01-10T09:18:31.569Z,5.70
2018-01-10T09:19:36.196Z,5.75
2018-01-10T09:20:40.849Z,5.79
2018-01-10T09:21:46.041Z,5.87
2018-01-10T09:22:50.728Z,5.88
2018-01-10T09:23:55.489Z,5.97
2018-01-10T09:25:00.271Z,6.00
2018-01-10T09:26:05.047Z,6.07
2018-01-10T09:27:09.771Z,6.09
2018-01-10T09:28:14.995Z,5.99
2018-01-10T09:29:19.655Z,6.09
2018-01-10T09:30:24.516Z,6.12
2018-01-10T09:31:29.269Z,6.21
2018-01-10T09:32:33.974Z,6.09
2018-01-10T09:33:38.699Z,6.18
2018-01-10T09:34:43.893Z,6.25
2018-01-10T09:35:48.684Z,6.59
2018-01-10T09:36:53.365Z,7.15
2018-01-10T09:37:58.354Z,7.94
2018-01-10T09:39:03.546Z,8.63
2018-01-10T09:40:08.323Z,8.99
2018-01-10T09:41:13.388Z,9.60
2018-01-10T09:42:18.155Z,9.78
2018-01-10T09:43:22.836Z,9.24
2018-01-10T09:44:27.553Z,8.98
2018-01-10T09:45:32.432Z,9.03
2018-01-10T09:46:37.161Z,9.45
2018-01-10T09:47:42.417Z,9.48
2018-01-10T09:48:47.306Z,9.47
2018-01-10T09:49:52.058Z,9.64
2018-01-10T09:50:56.831Z,8.98
2018-01-10T09:52:01.627Z,8.58
2018-01-10T09:53:06.424Z,8.43
2018-01-10T09:54:11.524Z,8.49
2018-01-10T09:55:16.349Z,8.29
2018-01-10T09:56:21.160Z,8.25
2018-01-10T09:57:25.902Z,8.37
2018-01-10T09:58:30.669Z,8.79
2018-01-10T09:59:35.626Z,8.60
2018-01-10T10:00:40.852Z,8.83
2018-01-10T10:01:45.681Z,9.13
2018-01-10T10:02:50.500Z,9.02
2018-01-10T10:03:55.277Z,8.88
2018-01-10T10:05:00.135Z,9.00
2018-01-10T10:06:04.953Z,8.91
2018-01-10T10:07:10.620Z,8.99
2018-01-10T10:08:15.470Z,8.93
2018-01-10T10:09:20.825Z,8.68
2018-01-10T10:10:25.601Z,8.68
2018-01-10T10:11:30.425Z,8.16
2018-01-10T10:12:35.239Z,8.65
2018-01-10T10:13:40.555Z,8.91
2018-01-10T10:14:45.410Z,8.52
2018-01-10T10:15:50.190Z,8.26
2018-01-10T10:16:55.036Z,8.56
2018-01-10T10:17:59.799Z,8.79
2018-01-10T10:19:04.620Z,9.36
2018-01-10T10:20:09.892Z,9.65
2018-01-10T10:21:14.697Z,9.00
2018-01-10T10:22:19.731Z,8.46
2018-01-10T10:23:25.019Z,8.25
2018-01-10T10:24:29.869Z,8.14
2018-01-10T10:25:34.649Z,8.23
2018-01-10T10:26:39.830Z,8.68
2018-01-10T10:27:44.797Z,8.96
2018-01-10T10:28:49.537Z,9.21
2018-01-10T10:29:54.416Z,10.09
2018-01-10T10:30:59.200Z,10.21
2018-01-10T10:32:04.099Z,10.35
2018-01-10T10:33:09.397Z,10.85
2018-01-10T10:34:14.144Z,11.23
2018-01-10T10:35:19.007Z,11.16
2018-01-10T10:36:23.841Z,11.07
2018-01-10T10:37:28.657Z,10.84
2018-01-10T10:38:33.412Z,10.55
2018-01-10T10:39:38.694Z,10.76
2018-01-10T10:40:43.466Z,10.02
2018-01-10T10:41:48.413Z,9.58
2018-01-10T10:42:53.231Z,9.91
2018-01-10T10:43:58.015Z,10.07
2018-01-10T10:45:02.718Z,10.14
2018-01-10T10:46:07.413Z,9.47
2018-01-10T10:47:12.130Z,8.90
2018-01-10T10:48:16.890Z,9.64
2018-01-10T10:49:21.699Z,10.50
2018-01-10T10:50:26.580Z,10.98
2018-01-10T10:51:31.809Z,10.41
2018-01-10T10:52:36.597Z,10.30
2018-01-10T10:53:41.391Z,10.68
2018-01-10T10:54:46.255Z,10.96
2018-01-10T10:55:50.931Z,10.75
2018-01-10T10:56:55.848Z,10.98
2018-01-10T10:58:01.167Z,11.49
2018-01-10T10:59:05.860Z,11.19
2018-01-10T11:00:10.599Z,10.90
2018-01-10T11:01:15.342Z,11.00
2018-01-10T11:02:20.062Z,11.07
2018-01-10T11:03:24.921Z,11.45
2018-01-10T11:04:31.196Z,11.03
2018-01-10T11:05:35.999Z,10.47
2018-01-10T11:06:40.860Z,10.30
2018-01-10T11:07:45.692Z,10.35
2018-01-10T11:08:50.703Z,10.57
2018-01-10T11:09:55.713Z,10.32
2018-01-10T11:11:01.141Z,10.64
2018-01-10T11:12:05.915Z,11.11
2018-01-10T11:13:10.745Z,11.32
2018-01-10T11:14:15.547Z,11.07
2018-01-10T11:15:20.396Z,10.46
2018-01-10T11:16:25.138Z,10.29
2018-01-10T11:17:30.375Z,10.27
2018-01-10T11:18:35.185Z,10.42
2018-01-10T11:19:39.944Z,10.56
2018-01-10T11:20:45.281Z,10.27
2018-01-10T11:21:50.061Z,10.75
2018-01-10T11:22:54.821Z,10.71
2018-01-10T11:23:59.929Z,10.94
2018-01-10T11:25:04.648Z,11.11
2018-01-10T11:26:09.437Z,10.69
2018-01-10T11:27:14.398Z,11.15
2018-01-10T11:28:23.410Z,11.86
2018-01-10T11:29:28.290Z,11.41
2018-01-10T11:30:33.453Z,10.76
2018-01-10T11:31:38.418Z,11.02
2018-01-10T11:32:43.432Z,10.72
2018-01-10T11:33:48.478Z,9.95
2018-01-10T11:34:53.197Z,9.70
2018-01-10T11:35:58.210Z,9.58
2018-01-10T11:37:03.370Z,9.45
2018-01-10T11:38:08.187Z,9.24
2018-01-10T11:39:12.959Z,9.17
2018-01-10T11:40:17.715Z,9.30
2018-01-10T11:41:22.505Z,9.19
2018-01-10T11:42:27.914Z,9.07
2018-01-10T11:43:32.963Z,8.85
2018-01-10T11:44:38.180Z,8.81
2018-01-10T11:45:44.064Z,8.67
2018-01-10T11:46:49.083Z,8.62
2018-01-10T11:47:54.002Z,8.62
2018-01-10T11:48:59.328Z,8.85
2018-01-10T11:50:04.336Z,8.64
2018-01-10T11:51:09.141Z,8.92
2018-01-10T11:52:14.480Z,9.33
2018-01-10T11:53:19.431Z,9.16
2018-01-10T11:54:24.318Z,8.93
2018-01-10T11:55:29.546Z,8.66
2018-01-10T11:56:34.344Z,8.49
2018-01-10T11:57:39.153Z,8.55
2018-01-10T11:58:43.897Z,8.48
2018-01-10T11:59:48.770Z,8.47
2018-01-10T12:00:53.659Z,8.59
2018-01-10T12:01:58.776Z,8.79
2018-01-10T12:03:03.666Z,9.24
2018-01-10T12:04:08.596Z,9.02
2018-01-10T12:05:13.426Z,8.88
2018-01-10T12:06:18.386Z,8.87
2018-01-10T12:07:23.451Z,8.62
2018-01-10T12:08:28.914Z,8.46
2018-01-10T12:09:33.711Z,8.58
2018-01-10T12:10:38.648Z,8.52
2018-01-10T12:11:43.485Z,8.56
2018-01-10T12:12:48.493Z,8.37
2018-01-10T12:13:53.374Z,8.41
2018-01-10T12:14:58.655Z,8.51
2018-01-10T12:16:03.423Z,8.58
2018-01-10T12:17:08.244Z,9.21
2018-01-10T12:18:13.012Z,9.26
2018-01-10T12:19:18.200Z,8.83
2018-01-10T12:20:23.012Z,8.57
2018-01-10T12:21:28.686Z,8.54
2018-01-10T12:22:33.755Z,8.90
2018-01-10T12:23:38.703Z,8.93
2018-01-10T12:24:43.452Z,9.01
2018-01-10T12:25:48.317Z,9.41
2018-01-10T12:26:52.998Z,9.33
2018-01-10T12:27:57.925Z,9.49
2018-01-10T12:29:02.620Z,9.39
2018-01-10T12:30:07.438Z,9.33
2018-01-10T12:31:12.286Z,9.61
2018-01-10T12:32:16.994Z,9.68
2018-01-10T12:33:21.600Z,9.20
2018-01-10T12:34:26.478Z,9.06
2018-01-10T12:35:31.458Z,9.10
2018-01-10T12:36:37.084Z,8.79
2018-01-10T12:37:41.753Z,8.71
2018-01-10T12:38:47.851Z,8.83
2018-01-10T12:39:52.632Z,8.92
2018-01-10T12:40:57.381Z,9.03
2018-01-10T12:42:03.359Z,9.00
2018-01-10T12:43:09.390Z,9.24
2018-01-10T12:44:14.425Z,9.27
2018-01-10T12:45:19.895Z,9.27
2018-01-10T12:46:25.359Z,9.37
2018-01-10T12:47:30.200Z,9.12
2018-01-10T12:48:36.178Z,8.92
2018-01-10T12:49:41.238Z,8.66
2018-01-10T12:50:47.210Z,8.66
2018-01-10T12:51:52.658Z,8.64
2018-01-10T12:52:57.497Z,8.54
2018-01-10T12:54:02.270Z,8.35
2018-01-10T12:55:07.335Z,8.34
2018-01-10T12:56:12.142Z,8.37
2018-01-10T12:57:17.382Z,8.27
2018-01-10T12:58:23.449Z,8.32
2018-01-10T12:59:28.520Z,8.47
2018-01-10T13:00:33.285Z,8.29
2018-01-10T13:01:38.095Z,8.25
2018-01-10T13:02:42.911Z,8.16
2018-01-10T13:03:47.683Z,8.21
2018-01-10T13:04:53.039Z,8.22
2018-01-10T13:05:57.747Z,8.22
2018-01-10T13:07:02.503Z,8.15
2018-01-10T13:08:07.198Z,8.23
2018-01-10T13:09:11.954Z,8.22
2018-01-10T13:10:16.682Z,8.18
2018-01-10T13:11:21.937Z,8.27
2018-01-10T13:12:26.754Z,8.28
2018-01-10T13:13:31.495Z,8.31
2018-01-10T13:14:36.403Z,8.21
2018-01-10T13:15:41.230Z,8.32
2018-01-10T13:16:45.938Z,8.36
2018-01-10T13:17:51.166Z,8.49
2018-01-10T13:18:55.958Z,8.42
2018-01-10T13:20:00.763Z,8.35
2018-01-10T13:21:05.502Z,8.36
2018-01-10T13:22:10.346Z,8.41
2018-01-10T13:23:16.062Z,8.45
2018-01-10T13:24:21.528Z,8.27
2018-01-10T13:25:26.385Z,8.26
2018-01-10T13:26:31.209Z,8.21
2018-01-10T13:27:36.420Z,8.24
2018-01-10T13:28:41.545Z,8.30
2018-01-10T13:29:48.143Z,8.29
2018-01-10T13:30:53.548Z,8.32
2018-01-10T13:31:58.638Z,8.35
2018-01-10T13:33:03.752Z,8.37
2018-01-10T13:34:08.971Z,8.38
2018-01-10T13:35:14.333Z,8.35
